createdAt,value
2022-12-19T00:00:08.128Z,102042.53
2022-12-19T00:01:09.247Z,102038.06
2022-12-19T00:01:56.428Z,102030.88
2022-12-19T00:02:43.644Z,102030.78
2022-12-19T00:03:32.369Z,102031.19
2022-12-19T00:04:21.463Z,102035.78
2022-12-19T00:05:08.453Z,102038.34
2022-12-19T00:05:55.441Z,102043.59
2022-12-19T00:06:43.782Z,102037.69
2022-12-19T00:07:31.014Z,102040.37
2022-12-19T00:08:18.210Z,102043.78
2022-12-19T00:09:08.435Z,102039.50
2022-12-19T00:09:55.455Z,102043.94
2022-12-19T00:10:42.714Z,102043.72
2022-12-19T00:11:30.118Z,102038.34
2022-12-19T00:12:19.321Z,102032.94
2022-12-19T00:13:06.354Z,102037.28
2022-12-19T00:13:53.590Z,102032.03
2022-12-19T00:14:40.642Z,102038.19
2022-12-19T00:15:28.199Z,102027.00
2022-12-19T00:16:20.166Z,102029.53
2022-12-19T00:17:07.101Z,102022.38
2022-12-19T00:17:54.385Z,102020.53
2022-12-19T00:18:42.614Z,102018.78
2022-12-19T00:19:29.753Z,102020.53
2022-12-19T00:20:18.678Z,102015.16
2022-12-19T00:21:06.297Z,102016.09
2022-12-19T00:21:53.176Z,102022.12
2022-12-19T00:22:40.155Z,102010.84
2022-12-19T00:23:29.498Z,102014.25
2022-12-19T00:24:20.724Z,102013.25
2022-12-19T00:25:08.845Z,102011.53
2022-12-19T00:25:56.605Z,102004.50
2022-12-19T00:26:43.866Z,102007.91
2022-12-19T00:27:34.857Z,102013.19
2022-12-19T00:28:22.030Z,102005.22
2022-12-19T00:29:14.121Z,102007.75
2022-12-19T00:30:01.415Z,102011.22
2022-12-19T00:30:48.384Z,102014.81
2022-12-19T00:31:36.833Z,102014.03
2022-12-19T00:32:23.775Z,102018.34
2022-12-19T00:33:10.694Z,102015.81
2022-12-19T00:33:58.068Z,102014.94
2022-12-19T00:34:45.367Z,102016.44
2022-12-19T00:35:32.267Z,102020.06
2022-12-19T00:36:22.904Z,102021.97
2022-12-19T00:37:12.077Z,102017.38
2022-12-19T00:37:59.001Z,102024.38
2022-12-19T00:38:46.587Z,102024.31
2022-12-19T00:39:33.467Z,102017.28
2022-12-19T00:40:20.425Z,102020.88
2022-12-19T00:41:09.654Z,102020.78
2022-12-19T00:41:56.523Z,102021.69
2022-12-19T00:42:46.414Z,102024.38
2022-12-19T00:43:35.725Z,102025.41
2022-12-19T00:44:22.895Z,102022.69
2022-12-19T00:45:18.754Z,102025.25
2022-12-19T00:46:07.980Z,102030.59
2022-12-19T00:46:54.946Z,102029.72
2022-12-19T00:47:41.809Z,102031.53
2022-12-19T00:48:29.291Z,102024.47
2022-12-19T00:49:16.315Z,102024.38
2022-12-19T00:50:04.505Z,102025.09
2022-12-19T00:50:58.695Z,102023.69
2022-12-19T00:51:45.745Z,102020.97
2022-12-19T00:52:33.107Z,102026.09
2022-12-19T00:53:21.093Z,102017.34
2022-12-19T00:54:08.061Z,102020.84
2022-12-19T00:54:55.458Z,102017.44
2022-12-19T00:55:42.367Z,102019.94
2022-12-19T00:56:33.505Z,102014.62
2022-12-19T00:57:24.784Z,102018.88
2022-12-19T00:58:11.644Z,102014.41
2022-12-19T00:58:58.925Z,102015.34
2022-12-19T00:59:45.897Z,102014.34
2022-12-19T01:00:32.838Z,102017.06
2022-12-19T01:01:24.658Z,102017.19
2022-12-19T01:02:11.811Z,102020.91
2022-12-19T01:02:59.012Z,102022.69
2022-12-19T01:04:04.275Z,102024.38
2022-12-19T01:04:53.255Z,102018.25
2022-12-19T01:05:40.744Z,102029.56
2022-12-19T01:06:29.659Z,102018.97
2022-12-19T01:07:16.921Z,102018.12
2022-12-19T01:08:03.886Z,102019.75
2022-12-19T01:08:50.892Z,102018.88
2022-12-19T01:09:37.978Z,102008.44
2022-12-19T01:10:24.875Z,102019.06
2022-12-19T01:11:12.016Z,102012.94
2022-12-19T01:12:17.645Z,102013.84
2022-12-19T01:13:04.494Z,102005.00
2022-12-19T01:13:51.335Z,102005.12
2022-12-19T01:14:38.276Z,102006.94
2022-12-19T01:15:25.246Z,102000.94
2022-12-19T01:16:13.767Z,102006.56
2022-12-19T01:17:00.644Z,101998.81
2022-12-19T01:17:48.826Z,102004.09
2022-12-19T01:18:36.285Z,102011.16
2022-12-19T01:19:23.175Z,102010.25
2022-12-19T01:20:10.776Z,102014.44
2022-12-19T01:21:00.077Z,102011.62
2022-12-19T01:21:47.245Z,102008.22
2022-12-19T01:22:35.344Z,102009.78
2022-12-19T01:23:23.039Z,102013.13
2022-12-19T01:24:09.996Z,102012.41
2022-12-19T01:24:56.949Z,102008.88
2022-12-19T01:25:45.879Z,102007.94
2022-12-19T01:26:33.085Z,102012.31
2022-12-19T01:27:19.976Z,102010.59
2022-12-19T01:28:07.597Z,102006.09
2022-12-19T01:28:54.534Z,102007.00
2022-12-19T01:29:45.818Z,102007.22
2022-12-19T01:30:40.698Z,102008.06
2022-12-19T01:31:28.691Z,102006.28
2022-12-19T01:32:15.604Z,102005.47
2022-12-19T01:33:02.545Z,102009.72
2022-12-19T01:33:49.475Z,102008.06
2022-12-19T01:34:37.266Z,102011.47
2022-12-19T01:35:24.556Z,102008.88
2022-12-19T01:36:11.435Z,102007.84
2022-12-19T01:36:58.296Z,102005.34
2022-12-19T01:37:45.218Z,102007.94
2022-12-19T01:38:32.126Z,102006.28
2022-12-19T01:39:19.034Z,102001.84
2022-12-19T01:40:06.583Z,102002.81
2022-12-19T01:40:55.965Z,101994.03
2022-12-19T01:41:42.980Z,101997.72
2022-12-19T01:42:35.266Z,101991.66
2022-12-19T01:43:23.436Z,101990.75
2022-12-19T01:44:10.318Z,101981.00
2022-12-19T01:45:10.325Z,101982.00
2022-12-19T01:46:06.498Z,101979.31
2022-12-19T01:46:57.754Z,101985.56
2022-12-19T01:48:14.011Z,101984.59
2022-12-19T01:49:01.707Z,101985.38
2022-12-19T01:49:48.642Z,101986.22
2022-12-19T01:51:01.480Z,101978.41
2022-12-19T01:51:49.704Z,101979.47
2022-12-19T01:52:36.594Z,101981.12
2022-12-19T01:53:26.482Z,101976.97
2022-12-19T01:54:21.236Z,101976.97
2022-12-19T01:55:09.026Z,101977.09
2022-12-19T01:55:56.278Z,101981.44
2022-12-19T01:56:46.693Z,101976.06
2022-12-19T01:57:34.777Z,101977.81
2022-12-19T01:58:24.329Z,101982.22
2022-12-19T01:59:15.004Z,101982.94
2022-12-19T02:00:04.235Z,101982.03
2022-12-19T02:00:51.273Z,101979.59
2022-12-19T02:01:49.010Z,101981.31
2022-12-19T02:02:45.754Z,101986.69
2022-12-19T02:03:34.277Z,101981.53
2022-12-19T02:04:21.783Z,101976.13
2022-12-19T02:05:08.977Z,101984.06
2022-12-19T02:05:56.564Z,101986.56
2022-12-19T02:06:43.535Z,101980.38
2022-12-19T02:07:31.932Z,101982.81
2022-12-19T02:08:19.017Z,101981.09
2022-12-19T02:09:05.901Z,101979.25
2022-12-19T02:09:56.999Z,101981.25
2022-12-19T02:10:44.364Z,101976.75
2022-12-19T02:11:31.477Z,101974.16
2022-12-19T02:12:18.392Z,101975.28
2022-12-19T02:13:08.437Z,101973.50
2022-12-19T02:13:55.356Z,101978.00
2022-12-19T02:14:42.546Z,101976.06
2022-12-19T02:15:33.559Z,101977.00
2022-12-19T02:16:39.409Z,101976.00
2022-12-19T02:17:39.988Z,101976.22
2022-12-19T02:18:38.940Z,101976.97
2022-12-19T02:19:54.120Z,101976.00
2022-12-19T02:21:08.269Z,101977.03
2022-12-19T02:22:32.366Z,101977.69
2022-12-19T02:23:31.167Z,101977.62
2022-12-19T02:24:29.383Z,101974.00
2022-12-19T02:25:47.359Z,101971.66
2022-12-19T02:26:46.922Z,101971.59
2022-12-19T02:27:46.042Z,101963.81
2022-12-19T02:29:10.362Z,101970.13
2022-12-19T02:30:11.115Z,101970.88
2022-12-19T02:31:36.671Z,101964.75
2022-12-19T02:32:26.225Z,101967.41
2022-12-19T02:33:20.456Z,101967.38
2022-12-19T02:34:14.222Z,101964.88
2022-12-19T02:35:26.526Z,101962.25
2022-12-19T02:36:18.297Z,101963.84
2022-12-19T02:37:09.180Z,101963.50
2022-12-19T02:38:02.574Z,101965.37
2022-12-19T02:39:00.270Z,101969.75
2022-12-19T02:40:05.349Z,101972.50
2022-12-19T02:40:59.033Z,101971.72
2022-12-19T02:41:55.364Z,101970.03
2022-12-19T02:42:45.774Z,101964.78
2022-12-19T02:43:37.037Z,101967.38
2022-12-19T02:44:26.570Z,101966.59
2022-12-19T02:45:16.801Z,101959.63
2022-12-19T02:46:14.401Z,101954.28
2022-12-19T02:47:03.042Z,101956.84
2022-12-19T02:47:50.032Z,101951.59
2022-12-19T02:48:37.052Z,101955.16
2022-12-19T02:49:30.717Z,101949.81
2022-12-19T02:50:18.356Z,101954.00
2022-12-19T02:51:05.516Z,101954.06
2022-12-19T02:51:52.453Z,101951.28
2022-12-19T02:52:39.315Z,101942.50
2022-12-19T02:53:26.335Z,101953.13
2022-12-19T02:54:13.267Z,101946.06
2022-12-19T02:55:04.028Z,101944.25
2022-12-19T02:56:08.057Z,101949.53
2022-12-19T02:57:17.487Z,101946.88
2022-12-19T02:58:16.329Z,101941.34
2022-12-19T02:59:17.817Z,101939.38
2022-12-19T03:00:13.603Z,101938.59
2022-12-19T03:01:17.088Z,101937.00
2022-12-19T03:02:14.175Z,101935.31
2022-12-19T03:03:21.984Z,101934.28
2022-12-19T03:04:38.091Z,101933.50
2022-12-19T03:05:40.380Z,101935.31
2022-12-19T03:06:41.273Z,101936.91
2022-12-19T03:07:49.433Z,101932.34
2022-12-19T03:08:47.686Z,101939.50
2022-12-19T03:10:00.224Z,101942.19
2022-12-19T03:10:53.748Z,101937.50
2022-12-19T03:11:42.633Z,101936.59
2022-12-19T03:12:53.022Z,101929.72
2022-12-19T03:13:48.222Z,101934.03
2022-12-19T03:14:35.827Z,101938.22
2022-12-19T03:15:23.384Z,101947.03
2022-12-19T03:16:14.061Z,101940.91
2022-12-19T03:17:06.103Z,101941.56
2022-12-19T03:17:59.238Z,101944.88
2022-12-19T03:18:46.297Z,101938.69
2022-12-19T03:19:35.260Z,101933.53
2022-12-19T03:20:44.566Z,101945.66
2022-12-19T03:21:37.650Z,101931.75
2022-12-19T03:22:24.638Z,101930.91
2022-12-19T03:23:15.309Z,101934.16
2022-12-19T03:24:02.766Z,101926.19
2022-12-19T03:24:49.738Z,101926.09
2022-12-19T03:25:36.661Z,101928.81
2022-12-19T03:26:25.808Z,101927.75
2022-12-19T03:27:21.196Z,101921.50
2022-12-19T03:28:12.749Z,101918.97
2022-12-19T03:29:16.563Z,101916.44
2022-12-19T03:30:07.153Z,101909.34
2022-12-19T03:30:53.922Z,101918.13
2022-12-19T03:31:41.771Z,101914.72
2022-12-19T03:32:30.367Z,101911.09
2022-12-19T03:33:19.330Z,101912.19
2022-12-19T03:34:19.471Z,101915.37
2022-12-19T03:35:08.965Z,101913.66
2022-12-19T03:35:56.803Z,101909.44
2022-12-19T03:36:47.346Z,101904.63
2022-12-19T03:37:34.821Z,101914.22
2022-12-19T03:38:22.193Z,101909.78
2022-12-19T03:39:10.719Z,101911.56
2022-12-19T03:40:00.387Z,101914.03
2022-12-19T03:40:48.421Z,101914.13
2022-12-19T03:41:54.816Z,101910.88
2022-12-19T03:43:05.344Z,101908.09
2022-12-19T03:43:52.420Z,101910.53
2022-12-19T03:44:41.564Z,101908.88
2022-12-19T03:45:54.622Z,101909.56
2022-12-19T03:46:50.923Z,101905.94
2022-12-19T03:47:44.956Z,101901.37
2022-12-19T03:48:45.620Z,101905.56
2022-12-19T03:49:32.666Z,101906.31
2022-12-19T03:50:19.766Z,101905.44
2022-12-19T03:51:15.908Z,101908.06
2022-12-19T03:52:05.406Z,101911.41
2022-12-19T03:53:10.629Z,101918.34
2022-12-19T03:54:07.951Z,101919.13
2022-12-19T03:55:06.815Z,101915.50
2022-12-19T03:56:37.073Z,101911.91
2022-12-19T03:58:01.019Z,101914.44
2022-12-19T03:58:52.197Z,101925.69
2022-12-19T03:59:45.229Z,101917.63
2022-12-19T04:00:34.782Z,101926.06
2022-12-19T04:01:22.007Z,101925.88
2022-12-19T04:02:10.465Z,101918.66
2022-12-19T04:02:58.036Z,101929.22
2022-12-19T04:03:45.344Z,101928.34
2022-12-19T04:04:36.568Z,101927.25
2022-12-19T04:05:27.603Z,101928.97
2022-12-19T04:06:15.218Z,101913.97
2022-12-19T04:07:03.825Z,101915.59
2022-12-19T04:07:52.937Z,101916.41
2022-12-19T04:08:40.253Z,101918.13
2022-12-19T04:09:27.387Z,101913.81
2022-12-19T04:10:17.389Z,101915.44
2022-12-19T04:11:09.667Z,101912.41
2022-12-19T04:12:10.339Z,101909.81
2022-12-19T04:13:12.938Z,101910.47
2022-12-19T04:14:03.467Z,101916.53
2022-12-19T04:14:50.496Z,101917.41
2022-12-19T04:15:49.207Z,101911.91
2022-12-19T04:16:44.427Z,101914.47
2022-12-19T04:17:49.808Z,101911.84
2022-12-19T04:18:37.949Z,101903.81
2022-12-19T04:19:48.849Z,101909.25
2022-12-19T04:20:38.331Z,101899.66
2022-12-19T04:21:32.881Z,101902.31
2022-12-19T04:22:37.232Z,101903.94
2022-12-19T04:23:29.363Z,101899.44
2022-12-19T04:24:26.813Z,101894.16
2022-12-19T04:25:16.803Z,101899.09
2022-12-19T04:26:05.356Z,101894.59
2022-12-19T04:26:54.431Z,101895.56
2022-12-19T04:27:44.941Z,101900.03
2022-12-19T04:28:45.975Z,101896.31
2022-12-19T04:29:34.980Z,101895.38
2022-12-19T04:30:22.018Z,101903.16
2022-12-19T04:31:12.164Z,101906.38
2022-12-19T04:31:59.409Z,101905.41
2022-12-19T04:32:47.101Z,101908.81
2022-12-19T04:33:34.088Z,101917.47
2022-12-19T04:34:21.734Z,101919.91
2022-12-19T04:35:09.632Z,101920.88
2022-12-19T04:35:56.479Z,101922.53
2022-12-19T04:36:43.398Z,101921.56
2022-12-19T04:37:31.446Z,101920.38
2022-12-19T04:38:18.360Z,101917.56
2022-12-19T04:39:05.386Z,101914.94
2022-12-19T04:39:52.269Z,101913.47
2022-12-19T04:40:41.523Z,101910.78
2022-12-19T04:41:28.800Z,101914.25
2022-12-19T04:42:15.669Z,101915.84
2022-12-19T04:43:02.638Z,101907.81
2022-12-19T04:43:49.543Z,101911.47
2022-12-19T04:44:36.448Z,101906.06
2022-12-19T04:45:23.404Z,101908.03
2022-12-19T04:46:10.689Z,101902.75
2022-12-19T04:46:57.627Z,101902.75
2022-12-19T04:47:44.559Z,101906.19
2022-12-19T04:48:31.511Z,101906.12
2022-12-19T04:49:18.570Z,101902.28
2022-12-19T04:50:06.255Z,101904.75
2022-12-19T04:50:53.260Z,101908.88
2022-12-19T04:51:40.148Z,101903.53
2022-12-19T04:52:27.059Z,101901.69
2022-12-19T04:53:14.028Z,101905.16
2022-12-19T04:54:00.985Z,101900.72
2022-12-19T04:54:47.946Z,101899.06
2022-12-19T04:55:34.949Z,101899.91
2022-12-19T04:56:21.853Z,101897.97
2022-12-19T04:57:08.887Z,101896.16
2022-12-19T04:57:55.856Z,101895.25
2022-12-19T04:58:42.849Z,101898.91
2022-12-19T04:59:32.188Z,101898.91
2022-12-19T05:00:19.199Z,101902.41
2022-12-19T05:01:07.698Z,101899.22
2022-12-19T05:01:54.823Z,101903.41
2022-12-19T05:02:42.125Z,101906.00
2022-12-19T05:03:29.289Z,101904.22
2022-12-19T05:04:16.245Z,101895.09
2022-12-19T05:05:03.318Z,101908.50
2022-12-19T05:05:50.216Z,101902.34
2022-12-19T05:06:37.379Z,101904.06
2022-12-19T05:07:24.318Z,101904.13
2022-12-19T05:08:11.206Z,101901.19
2022-12-19T05:08:58.246Z,101906.47
2022-12-19T05:09:45.120Z,101901.13
2022-12-19T05:10:32.082Z,101901.78
2022-12-19T05:11:20.089Z,101896.75
2022-12-19T05:12:07.300Z,101896.50
2022-12-19T05:12:55.146Z,101902.59
2022-12-19T05:13:42.236Z,101892.06
2022-12-19T05:14:29.160Z,101899.44
2022-12-19T05:15:16.404Z,101897.47
2022-12-19T05:16:05.871Z,101902.66
2022-12-19T05:16:57.226Z,101906.16
2022-12-19T05:17:47.447Z,101901.50
2022-12-19T05:18:34.738Z,101897.00
2022-12-19T05:19:24.487Z,101899.75
2022-12-19T05:20:11.899Z,101892.72
2022-12-19T05:20:59.136Z,101893.44
2022-12-19T05:21:46.016Z,101892.50
2022-12-19T05:22:33.135Z,101893.44
2022-12-19T05:23:20.528Z,101895.28
2022-12-19T05:24:07.747Z,101899.47
2022-12-19T05:24:54.686Z,101886.09
2022-12-19T05:25:41.545Z,101893.91
2022-12-19T05:26:28.430Z,101890.31
2022-12-19T05:27:15.428Z,101896.53
2022-12-19T05:28:02.306Z,101897.34
2022-12-19T05:28:49.206Z,101900.69
2022-12-19T05:29:36.076Z,101899.34
2022-12-19T05:30:24.726Z,101899.97
2022-12-19T05:31:14.418Z,101900.09
2022-12-19T05:32:02.096Z,101898.59
2022-12-19T05:32:48.975Z,101901.66
2022-12-19T05:33:36.422Z,101893.81
2022-12-19T05:34:24.639Z,101904.37
2022-12-19T05:35:11.636Z,101901.88
2022-12-19T05:35:58.676Z,101895.56
2022-12-19T05:36:46.895Z,101894.72
2022-12-19T05:37:33.776Z,101897.19
2022-12-19T05:38:20.689Z,101896.16
2022-12-19T05:39:07.546Z,101888.28
2022-12-19T05:39:54.466Z,101893.00
2022-12-19T05:40:42.767Z,101893.59
2022-12-19T05:41:29.724Z,101891.78
2022-12-19T05:42:16.543Z,101892.72
2022-12-19T05:43:03.489Z,101890.91
2022-12-19T05:43:52.818Z,101891.81
2022-12-19T05:44:40.004Z,101895.16
2022-12-19T05:45:26.906Z,101896.97
2022-12-19T05:46:13.917Z,101898.88
2022-12-19T05:47:00.905Z,101898.94
2022-12-19T05:47:48.174Z,101911.50
2022-12-19T05:48:35.562Z,101900.75
2022-12-19T05:49:22.418Z,101908.75
2022-12-19T05:50:09.965Z,101909.59
2022-12-19T05:50:56.914Z,101910.25
2022-12-19T05:51:46.986Z,101904.31
2022-12-19T05:52:33.875Z,101902.56
2022-12-19T05:53:25.755Z,101909.50
2022-12-19T05:54:13.105Z,101903.09
2022-12-19T05:55:00.263Z,101909.13
2022-12-19T05:55:47.126Z,101901.59
2022-12-19T05:56:34.031Z,101906.75
2022-12-19T05:57:20.911Z,101905.75
2022-12-19T05:58:07.782Z,101901.91
2022-12-19T05:58:54.906Z,101908.00
2022-12-19T05:59:41.902Z,101908.44
2022-12-19T06:00:28.805Z,101910.22
2022-12-19T06:01:18.553Z,101905.78
2022-12-19T06:02:05.639Z,101911.31
2022-12-19T06:02:52.659Z,101912.78
2022-12-19T06:03:39.950Z,101912.91
2022-12-19T06:04:26.853Z,101908.25
2022-12-19T06:05:14.086Z,101897.50
2022-12-19T06:06:09.672Z,101902.28
2022-12-19T06:06:56.591Z,101897.06
2022-12-19T06:07:43.496Z,101905.34
2022-12-19T06:08:30.462Z,101906.34
2022-12-19T06:09:17.360Z,101902.84
2022-12-19T06:10:04.847Z,101902.47
2022-12-19T06:10:51.813Z,101909.69
2022-12-19T06:11:38.719Z,101908.69
2022-12-19T06:12:25.660Z,101909.66
2022-12-19T06:13:12.520Z,101910.34
2022-12-19T06:13:59.469Z,101913.22
2022-12-19T06:14:46.362Z,101916.00
2022-12-19T06:15:33.285Z,101919.47
2022-12-19T06:16:21.644Z,101920.19
2022-12-19T06:17:08.604Z,101909.81
2022-12-19T06:17:55.562Z,101914.28
2022-12-19T06:18:45.035Z,101915.72
2022-12-19T06:19:32.281Z,101909.53
2022-12-19T06:20:19.181Z,101911.50
2022-12-19T06:21:08.043Z,101912.34
2022-12-19T06:21:54.982Z,101920.25
2022-12-19T06:22:44.631Z,101918.63
2022-12-19T06:23:33.243Z,101918.16
2022-12-19T06:24:20.132Z,101924.50
2022-12-19T06:25:07.964Z,101922.03
2022-12-19T06:25:57.623Z,101926.09
2022-12-19T06:26:45.020Z,101919.81
2022-12-19T06:27:31.908Z,101924.31
2022-12-19T06:28:18.861Z,101926.31
2022-12-19T06:29:05.763Z,101925.28
2022-12-19T06:29:52.724Z,101925.31
2022-12-19T06:30:39.610Z,101933.31
2022-12-19T06:31:26.615Z,101931.75
2022-12-19T06:32:13.554Z,101930.81
2022-12-19T06:33:01.198Z,101929.00
2022-12-19T06:33:48.093Z,101935.88
2022-12-19T06:35:04.661Z,101929.84
2022-12-19T06:35:42.298Z,101934.63
2022-12-19T06:36:30.781Z,101936.78
2022-12-19T06:37:17.783Z,101938.41
2022-12-19T06:38:04.687Z,101938.16
2022-12-19T06:38:51.998Z,101939.69
2022-12-19T06:39:38.948Z,101942.78
2022-12-19T06:40:44.730Z,101937.59
2022-12-19T06:41:50.573Z,101933.91
2022-12-19T06:42:37.512Z,101931.22
2022-12-19T06:43:26.005Z,101935.50
2022-12-19T06:44:14.667Z,101925.78
2022-12-19T06:45:01.630Z,101929.28
2022-12-19T06:45:48.529Z,101927.66
2022-12-19T06:46:35.434Z,101923.06
2022-12-19T06:47:23.324Z,101922.09
2022-12-19T06:48:10.252Z,101927.09
2022-12-19T06:49:00.015Z,101923.81
2022-12-19T06:49:47.034Z,101923.28
2022-12-19T06:50:36.111Z,101923.50
2022-12-19T06:51:23.462Z,101931.28
2022-12-19T06:52:10.321Z,101923.44
2022-12-19T06:52:57.190Z,101926.31
2022-12-19T06:53:44.187Z,101926.41
2022-12-19T06:54:31.674Z,101924.09
2022-12-19T06:55:18.910Z,101921.34
2022-12-19T06:56:06.120Z,101919.53
2022-12-19T06:56:53.021Z,101919.34
2022-12-19T06:57:46.186Z,101916.62
2022-12-19T06:58:33.787Z,101920.06
2022-12-19T06:59:20.818Z,101920.88
2022-12-19T07:00:08.498Z,101926.91
2022-12-19T07:00:55.502Z,101925.66
2022-12-19T07:01:48.589Z,101925.69
2022-12-19T07:02:35.586Z,101922.97
2022-12-19T07:03:26.048Z,101923.19
2022-12-19T07:04:16.100Z,101925.94
2022-12-19T07:05:04.731Z,101917.41
2022-12-19T07:05:51.700Z,101932.78
2022-12-19T07:06:38.978Z,101933.50
2022-12-19T07:07:25.883Z,101927.28
2022-12-19T07:08:12.793Z,101934.38
2022-12-19T07:09:00.321Z,101933.34
2022-12-19T07:09:47.229Z,101935.97
2022-12-19T07:10:34.233Z,101933.03
2022-12-19T07:11:21.118Z,101928.50
2022-12-19T07:12:10.177Z,101937.69
2022-12-19T07:12:57.078Z,101935.56
2022-12-19T07:13:43.988Z,101930.41
2022-12-19T07:14:31.007Z,101928.41
2022-12-19T07:15:17.876Z,101923.50
2022-12-19T07:16:05.842Z,101922.63
2022-12-19T07:16:53.733Z,101919.91
2022-12-19T07:17:40.843Z,101932.22
2022-12-19T07:18:29.540Z,101920.59
2022-12-19T07:19:16.736Z,101917.59
2022-12-19T07:20:03.968Z,101917.78
2022-12-19T07:20:50.998Z,101928.44
2022-12-19T07:21:38.383Z,101927.59
2022-12-19T07:22:27.749Z,101932.13
2022-12-19T07:23:19.701Z,101938.44
2022-12-19T07:24:07.494Z,101932.63
2022-12-19T07:24:56.325Z,101934.09
2022-12-19T07:25:43.279Z,101930.53
2022-12-19T07:26:30.296Z,101927.00
2022-12-19T07:27:17.191Z,101922.41
2022-12-19T07:28:51.417Z,101933.91
2022-12-19T07:29:38.291Z,101929.16
2022-12-19T07:30:25.189Z,101930.06
2022-12-19T07:31:12.852Z,101931.47
2022-12-19T07:31:59.961Z,101939.69
2022-12-19T07:32:46.851Z,101937.97
2022-12-19T07:33:34.045Z,101936.69
2022-12-19T07:34:20.976Z,101944.66
2022-12-19T07:35:08.371Z,101937.50
2022-12-19T07:35:55.291Z,101947.16
2022-12-19T07:36:42.207Z,101941.00
2022-12-19T07:37:29.128Z,101944.03
2022-12-19T07:38:16.415Z,101944.63
2022-12-19T07:39:03.400Z,101942.59
2022-12-19T07:39:50.571Z,101937.94
2022-12-19T07:40:37.503Z,101945.91
2022-12-19T07:41:24.446Z,101948.56
2022-12-19T07:42:12.355Z,101953.69
2022-12-19T07:43:03.574Z,101949.19
2022-12-19T07:43:50.476Z,101945.75
2022-12-19T07:44:37.394Z,101950.72
2022-12-19T07:45:24.297Z,101945.50
2022-12-19T07:46:11.466Z,101939.88
2022-12-19T07:46:58.413Z,101952.84
2022-12-19T07:47:45.386Z,101951.56
2022-12-19T07:48:32.290Z,101957.31
2022-12-19T07:49:22.622Z,101950.00
2022-12-19T07:50:09.891Z,101952.72
2022-12-19T07:50:56.789Z,101946.28
2022-12-19T07:51:43.708Z,101945.53
2022-12-19T07:52:30.657Z,101943.94
2022-12-19T07:53:17.592Z,101947.75
2022-12-19T07:54:08.257Z,101941.28
2022-12-19T07:54:54.997Z,101945.69
2022-12-19T07:55:42.240Z,101932.09
2022-12-19T07:56:29.138Z,101930.16
2022-12-19T07:57:16.185Z,101934.75
2022-12-19T07:58:03.257Z,101932.81
2022-12-19T07:58:50.248Z,101938.25
2022-12-19T07:59:39.414Z,101932.00
2022-12-19T08:00:26.444Z,101930.41
2022-12-19T08:01:13.489Z,101929.28
2022-12-19T08:02:00.621Z,101942.16
2022-12-19T08:02:48.159Z,101932.88
2022-12-19T08:03:36.177Z,101940.53
2022-12-19T08:04:23.226Z,101952.37
2022-12-19T08:05:10.440Z,101949.09
2022-12-19T08:06:05.480Z,101957.97
2022-12-19T08:06:52.361Z,101972.06
2022-12-19T08:07:39.291Z,101974.66
2022-12-19T08:08:26.418Z,101976.09
2022-12-19T08:09:13.719Z,101975.03
2022-12-19T08:10:00.790Z,101983.81
2022-12-19T08:10:47.756Z,101983.53
2022-12-19T08:11:34.741Z,101981.03
2022-12-19T08:12:21.744Z,101975.91
2022-12-19T08:13:09.246Z,101963.50
2022-12-19T08:13:57.366Z,101964.97
2022-12-19T08:14:44.870Z,101952.75
2022-12-19T08:15:31.855Z,101949.66
2022-12-19T08:16:18.833Z,101954.44
2022-12-19T08:17:21.778Z,101960.41
2022-12-19T08:18:08.904Z,101959.63
2022-12-19T08:18:55.974Z,101962.16
2022-12-19T08:19:43.060Z,101970.88
2022-12-19T08:20:30.395Z,101966.16
2022-12-19T08:21:17.382Z,101968.06
2022-12-19T08:22:04.305Z,101962.00
2022-12-19T08:22:51.724Z,101959.19
2022-12-19T08:23:41.606Z,101960.03
2022-12-19T08:24:31.118Z,101944.81
2022-12-19T08:25:17.992Z,101958.44
2022-12-19T08:26:07.603Z,101957.09
2022-12-19T08:26:54.556Z,101958.59
2022-12-19T08:27:43.026Z,101946.19
2022-12-19T08:28:30.946Z,101948.44
2022-12-19T08:29:17.864Z,101943.09
2022-12-19T08:30:05.265Z,101941.97
2022-12-19T08:30:52.334Z,101952.13
2022-12-19T08:31:39.286Z,101948.66
2022-12-19T08:32:26.227Z,101944.50
2022-12-19T08:33:13.200Z,101946.84
2022-12-19T08:34:00.205Z,101947.06
2022-12-19T08:34:47.149Z,101951.59
2022-12-19T08:35:34.205Z,101950.88
2022-12-19T08:36:21.305Z,101957.62
2022-12-19T08:37:08.976Z,101953.25
2022-12-19T08:37:55.878Z,101962.31
2022-12-19T08:38:42.829Z,101953.97
2022-12-19T08:39:29.736Z,101954.31
2022-12-19T08:40:16.685Z,101953.97
2022-12-19T08:41:04.448Z,101953.25
2022-12-19T08:41:51.425Z,101955.06
2022-12-19T08:42:38.297Z,101950.72
2022-12-19T08:43:25.531Z,101956.09
2022-12-19T08:44:13.521Z,101952.16
2022-12-19T08:45:00.430Z,101946.62
2022-12-19T08:45:50.640Z,101942.53
2022-12-19T08:46:37.646Z,101954.22
2022-12-19T08:47:24.671Z,101954.12
2022-12-19T08:48:11.758Z,101966.47
2022-12-19T08:48:58.641Z,101962.97
2022-12-19T08:49:46.901Z,101958.28
2022-12-19T08:50:33.779Z,101959.56
2022-12-19T08:51:22.145Z,101960.56
2022-12-19T08:52:09.020Z,101955.59
2022-12-19T08:52:56.055Z,101962.88
2022-12-19T08:53:44.316Z,101963.47
2022-12-19T08:54:31.212Z,101963.16
2022-12-19T08:55:18.259Z,101959.53
2022-12-19T08:56:17.077Z,101955.56
2022-12-19T08:57:04.139Z,101956.47
2022-12-19T08:57:51.016Z,101959.59
2022-12-19T08:58:38.007Z,101962.59
2022-12-19T08:59:31.622Z,101966.06
2022-12-19T09:00:19.235Z,101967.19
2022-12-19T09:01:13.646Z,101965.03
2022-12-19T09:02:01.305Z,101963.97
2022-12-19T09:02:48.611Z,101966.63
2022-12-19T09:03:45.851Z,101969.66
2022-12-19T09:06:00.334Z,101962.81
2022-12-19T09:06:07.023Z,101972.00
2022-12-19T09:06:57.360Z,101961.59
2022-12-19T09:07:44.307Z,101958.72
2022-12-19T09:08:32.360Z,101967.28
2022-12-19T09:09:19.257Z,101967.97
2022-12-19T09:10:06.587Z,101956.91
2022-12-19T09:11:05.935Z,101961.97
2022-12-19T09:11:52.881Z,101962.31
2022-12-19T09:12:39.902Z,101970.62
2022-12-19T09:13:30.510Z,101959.16
2022-12-19T09:14:21.292Z,101954.69
2022-12-19T09:15:08.923Z,101957.06
2022-12-19T09:16:07.189Z,101964.03
2022-12-19T09:16:54.137Z,101963.66
2022-12-19T09:17:41.077Z,101963.91
2022-12-19T09:18:28.916Z,101966.63
2022-12-19T09:19:16.680Z,101961.87
2022-12-19T09:20:03.778Z,101958.84
2022-12-19T09:20:54.281Z,101958.28
2022-12-19T09:21:41.390Z,101954.84
2022-12-19T09:22:29.556Z,101960.44
2022-12-19T09:23:16.621Z,101951.87
2022-12-19T09:24:07.925Z,101956.34
2022-12-19T09:24:55.447Z,101952.97
2022-12-19T09:25:42.326Z,101945.13
2022-12-19T09:26:29.198Z,101950.81
2022-12-19T09:27:20.753Z,101947.78
2022-12-19T09:29:20.749Z,101951.91
2022-12-19T09:30:09.246Z,101949.56
2022-12-19T09:31:08.426Z,101946.94